createdAt,value
2023-08-24T00:02:23.148Z,99793.66
2023-08-24T00:04:50.861Z,99790.72
2023-08-24T00:07:21.158Z,99786.13
2023-08-24T00:09:49.252Z,99790.44
2023-08-24T00:12:16.667Z,99780.81
2023-08-24T00:14:44.130Z,99790.50
2023-08-24T00:17:14.008Z,99781.00
2023-08-24T00:19:43.403Z,99782.34
2023-08-24T00:22:11.272Z,99779.06
2023-08-24T00:24:39.073Z,99778.34
2023-08-24T00:27:06.683Z,99777.59
2023-08-24T00:29:34.857Z,99777.59
2023-08-24T00:32:03.124Z,99778.91
2023-08-24T00:34:31.173Z,99774.34
2023-08-24T00:36:59.032Z,99772.88
2023-08-24T00:39:26.885Z,99776.91
2023-08-24T00:41:54.713Z,99764.91
2023-08-24T00:44:21.791Z,99772.94
2023-08-24T00:46:49.899Z,99773.25
2023-08-24T00:49:17.261Z,99774.00
2023-08-24T00:51:44.824Z,99777.69
2023-08-24T00:54:12.289Z,99779.78
2023-08-24T00:56:39.721Z,99785.41
2023-08-24T00:59:06.791Z,99783.47
2023-08-24T01:01:38.249Z,99782.72
2023-08-24T01:04:06.082Z,99779.47
2023-08-24T01:06:34.052Z,99783.47
2023-08-24T01:09:01.103Z,99771.16
2023-08-24T01:11:28.412Z,99773.09
2023-08-24T01:14:24.948Z,99775.78
2023-08-24T01:16:55.186Z,99771.34
2023-08-24T01:19:30.969Z,99767.63
2023-08-24T01:22:03.899Z,99782.63
2023-08-24T01:24:38.050Z,99784.84
2023-08-24T01:27:06.101Z,99786.34
2023-08-24T01:29:33.303Z,99782.00
2023-08-24T01:32:02.884Z,99778.91
2023-08-24T01:34:29.844Z,99779.66
2023-08-24T01:36:57.269Z,99788.72
2023-08-24T01:39:28.081Z,99790.94
2023-08-24T01:41:57.422Z,99780.84
2023-08-24T01:44:26.689Z,99787.09
2023-08-24T01:46:54.593Z,99779.25
2023-08-24T01:49:22.020Z,99780.88
2023-08-24T01:51:49.991Z,99778.97
2023-08-24T01:54:17.090Z,99777.94
2023-08-24T01:56:44.378Z,99782.69
2023-08-24T01:59:11.360Z,99771.56
2023-08-24T02:01:38.990Z,99768.75
2023-08-24T02:04:05.988Z,99767.88
2023-08-24T02:06:33.247Z,99765.78
2023-08-24T02:09:00.331Z,99769.03
2023-08-24T02:11:32.713Z,99768.31
2023-08-24T02:14:01.932Z,99762.69
2023-08-24T02:16:29.384Z,99761.19
2023-08-24T02:18:56.642Z,99755.53
2023-08-24T02:21:24.790Z,99758.97
2023-08-24T02:23:54.109Z,99756.59
2023-08-24T02:26:22.535Z,99763.28
2023-08-24T02:28:51.869Z,99760.63
2023-08-24T02:31:21.648Z,99763.44
2023-08-24T02:33:50.225Z,99764.75
2023-08-24T02:36:18.220Z,99754.84
2023-08-24T02:38:45.238Z,99759.28
2023-08-24T02:41:13.831Z,99757.66
2023-08-24T02:43:42.365Z,99755.88
2023-08-24T02:46:11.505Z,99767.47
2023-08-24T02:48:38.557Z,99755.03
2023-08-24T02:51:06.473Z,99763.75
2023-08-24T02:53:33.820Z,99760.03
2023-08-24T02:56:02.098Z,99765.38
2023-08-24T02:58:29.352Z,99749.06
2023-08-24T03:00:57.311Z,99754.72
2023-08-24T03:03:25.628Z,99758.69
2023-08-24T03:05:56.956Z,99763.47
2023-08-24T03:08:24.359Z,99766.88
2023-08-24T03:10:51.975Z,99772.94
2023-08-24T03:13:22.297Z,99762.13
2023-08-24T03:15:49.643Z,99769.84
2023-08-24T03:18:17.824Z,99764.19
2023-08-24T03:20:46.311Z,99767.63
2023-08-24T03:23:15.403Z,99765.53
2023-08-24T03:25:43.249Z,99766.88
2023-08-24T03:28:10.893Z,99774.44
2023-08-24T03:30:46.427Z,99775.00
2023-08-24T03:33:13.931Z,99770.41
2023-08-24T03:35:43.621Z,99773.22
2023-08-24T03:38:10.723Z,99774.41
2023-08-24T03:40:38.734Z,99781.09
2023-08-24T03:43:05.697Z,99780.34
2023-08-24T03:45:34.033Z,99776.66
2023-08-24T03:48:01.924Z,99778.72
2023-08-24T03:50:29.478Z,99780.50
2023-08-24T03:52:56.966Z,99771.91
2023-08-24T03:55:25.069Z,99773.66
2023-08-24T03:57:53.109Z,99775.44
2023-08-24T04:00:21.143Z,99780.31
2023-08-24T04:02:50.795Z,99790.09
2023-08-24T04:05:23.922Z,99783.72
2023-08-24T04:07:51.133Z,99789.50
2023-08-24T04:10:18.829Z,99781.06
2023-08-24T04:12:46.009Z,99788.00
2023-08-24T04:15:14.049Z,99790.81
2023-08-24T04:17:44.768Z,99792.75
2023-08-24T04:20:14.496Z,99784.16
2023-08-24T04:22:41.605Z,99786.38
2023-08-24T04:25:11.150Z,99792.75
2023-08-24T04:27:38.229Z,99790.81
2023-08-24T04:30:05.971Z,99794.38
2023-08-24T04:32:33.745Z,99800.94
2023-08-24T04:35:02.033Z,99796.78
2023-08-24T04:37:29.192Z,99801.22
2023-08-24T04:39:56.565Z,99797.25
2023-08-24T04:42:23.572Z,99807.47
2023-08-24T04:44:51.860Z,99812.50
2023-08-24T04:47:21.221Z,99808.97
2023-08-24T04:49:48.480Z,99814.16
2023-08-24T04:52:17.745Z,99817.88
2023-08-24T04:54:45.013Z,99808.53
2023-08-24T04:57:11.974Z,99811.78
2023-08-24T04:59:39.659Z,99821.44
2023-08-24T05:02:06.909Z,99825.31
2023-08-24T05:04:34.288Z,99824.56
2023-08-24T05:07:01.578Z,99829.31
2023-08-24T05:09:29.473Z,99827.06
2023-08-24T05:11:56.426Z,99825.72
2023-08-24T05:14:23.872Z,99832.53
2023-08-24T05:16:53.356Z,99833.25
2023-08-24T05:19:20.529Z,99834.28
2023-08-24T05:21:47.482Z,99836.97
2023-08-24T05:24:14.738Z,99834.84
2023-08-24T05:26:41.761Z,99836.03
2023-08-24T05:29:08.949Z,99836.25
2023-08-24T05:31:36.179Z,99833.59
2023-08-24T05:34:03.495Z,99831.31
2023-08-24T05:36:33.205Z,99828.69
2023-08-24T05:39:06.081Z,99827.19
2023-08-24T05:41:33.694Z,99829.75
2023-08-24T05:44:01.340Z,99836.38
2023-08-24T05:46:28.347Z,99835.03
2023-08-24T05:48:57.057Z,99838.53
2023-08-24T05:51:26.633Z,99835.16
2023-08-24T05:53:56.780Z,99841.22
2023-08-24T05:56:27.435Z,99840.41
2023-08-24T05:58:59.256Z,99837.22
2023-08-24T06:01:26.323Z,99836.69
2023-08-24T06:03:53.646Z,99843.00
2023-08-24T06:06:20.857Z,99841.31
2023-08-24T06:08:48.231Z,99841.09
2023-08-24T06:11:15.178Z,99840.16
2023-08-24T06:13:44.687Z,99836.25
2023-08-24T06:16:14.107Z,99838.88
2023-08-24T06:18:41.519Z,99836.50
2023-08-24T06:21:09.788Z,99838.72
2023-08-24T06:23:37.197Z,99837.38
2023-08-24T06:26:05.988Z,99834.91
2023-08-24T06:28:33.491Z,99836.53
2023-08-24T06:31:01.339Z,99843.13
2023-08-24T06:33:32.804Z,99833.94
2023-08-24T06:36:00.124Z,99833.09
2023-08-24T06:38:27.444Z,99835.44
2023-08-24T06:40:54.600Z,99827.44
2023-08-24T06:43:24.467Z,99838.75
2023-08-24T06:45:51.502Z,99839.09
2023-08-24T06:48:21.824Z,99844.53
2023-08-24T06:50:49.111Z,99845.88
2023-08-24T06:53:16.393Z,99844.66
2023-08-24T06:55:45.763Z,99846.56
2023-08-24T06:58:12.993Z,99849.28
2023-08-24T07:00:40.968Z,99854.66
2023-08-24T07:03:08.937Z,99860.28
2023-08-24T07:05:39.028Z,99869.78
2023-08-24T07:08:07.406Z,99867.78
2023-08-24T07:10:35.680Z,99872.88
2023-08-24T07:13:03.380Z,99875.69
2023-08-24T07:15:35.736Z,99880.38
2023-08-24T07:18:04.359Z,99880.41
2023-08-24T07:20:33.624Z,99877.53
2023-08-24T07:23:08.294Z,99876.97
2023-08-24T07:25:35.342Z,99885.66
2023-08-24T07:28:05.752Z,99896.28
2023-08-24T07:30:34.590Z,99894.16
2023-08-24T07:33:05.787Z,99886.81
2023-08-24T07:35:36.084Z,99887.97
2023-08-24T07:38:06.220Z,99878.31
2023-08-24T07:40:33.794Z,99886.97
2023-08-24T07:43:01.811Z,99881.94
2023-08-24T07:45:29.325Z,99886.44
2023-08-24T07:47:57.065Z,99893.06
2023-08-24T07:50:25.240Z,99895.28
2023-08-24T07:52:58.016Z,99894.75
2023-08-24T07:55:26.538Z,99898.06
2023-08-24T07:57:54.769Z,99895.66
2023-08-24T08:00:22.078Z,99903.94
2023-08-24T08:02:52.725Z,99891.81
2023-08-24T08:05:24.023Z,99895.03
2023-08-24T08:07:51.900Z,99896.00
2023-08-24T08:10:22.229Z,99904.75
2023-08-24T08:12:52.490Z,99903.66
2023-08-24T08:15:19.745Z,99910.34
2023-08-24T08:17:47.385Z,99903.16
2023-08-24T08:20:15.455Z,99895.16
2023-08-24T08:22:43.093Z,99905.00
2023-08-24T08:25:13.287Z,99903.72
2023-08-24T08:27:40.570Z,99897.28
2023-08-24T08:30:10.330Z,99899.97
2023-08-24T08:32:40.099Z,99900.84
2023-08-24T08:35:07.779Z,99897.13
2023-08-24T08:37:35.366Z,99902.97
2023-08-24T08:40:07.253Z,99897.31
2023-08-24T08:42:36.514Z,99895.75
2023-08-24T08:45:05.055Z,99897.19
2023-08-24T08:47:32.606Z,99886.50
2023-08-24T08:50:00.902Z,99887.91
2023-08-24T08:52:28.260Z,99887.47
2023-08-24T08:54:55.373Z,99889.28
2023-08-24T08:57:24.110Z,99884.34
2023-08-24T08:59:53.340Z,99879.22
2023-08-24T09:02:21.855Z,99883.53
2023-08-24T09:04:52.942Z,99887.16
2023-08-24T09:07:22.023Z,99884.09
2023-08-24T09:09:49.233Z,99881.34
2023-08-24T09:12:16.611Z,99876.03
2023-08-24T09:14:46.457Z,99883.34
2023-08-24T09:17:26.414Z,99868.00
2023-08-24T09:19:58.840Z,99873.25
2023-08-24T09:22:26.417Z,99868.81
2023-08-24T09:24:56.122Z,99878.16
2023-08-24T09:27:24.566Z,99868.03
2023-08-24T09:29:52.981Z,99873.00
2023-08-24T09:32:32.401Z,99865.00
2023-08-24T09:35:09.075Z,99866.19
2023-08-24T09:37:36.658Z,99866.25
2023-08-24T09:40:10.960Z,99856.22
2023-08-24T09:42:40.687Z,99864.00
2023-08-24T09:45:11.239Z,99854.66
2023-08-24T09:47:39.106Z,99850.16
2023-08-24T09:50:09.642Z,99860.59
2023-08-24T09:52:39.001Z,99845.34
2023-08-24T09:55:07.101Z,99847.00
2023-08-24T09:58:12.412Z,99830.16
2023-08-24T10:00:31.535Z,99835.66
2023-08-24T10:03:00.471Z,99822.56
2023-08-24T10:05:41.238Z,99816.06
2023-08-24T10:08:18.362Z,99823.25
2023-08-24T10:10:46.392Z,99816.03
2023-08-24T10:13:24.599Z,99816.78
2023-08-24T10:15:52.194Z,99821.75
2023-08-24T10:18:21.132Z,99808.59
2023-08-24T10:20:48.521Z,99802.28
2023-08-24T10:23:16.843Z,99796.03
2023-08-24T10:25:45.532Z,99794.78
2023-08-24T10:28:13.403Z,99796.78
2023-08-24T10:30:42.309Z,99790.44
2023-08-24T10:33:35.585Z,99785.72
2023-08-24T10:36:05.674Z,99783.84
2023-08-24T10:38:36.539Z,99773.81
2023-08-24T10:41:05.841Z,99776.31
2023-08-24T10:43:47.116Z,99773.03
2023-08-24T10:46:23.892Z,99761.06
2023-08-24T10:49:00.152Z,99766.16
2023-08-24T10:51:28.221Z,99763.66
2023-08-24T10:54:00.333Z,99763.56
2023-08-24T10:56:33.447Z,99761.19
2023-08-24T10:59:14.685Z,99766.84
2023-08-24T11:01:56.073Z,99757.16
2023-08-24T11:04:27.412Z,99762.19
2023-08-24T11:07:00.734Z,99751.16
2023-08-24T11:09:45.924Z,99747.34
2023-08-24T11:12:13.430Z,99750.38
2023-08-24T11:15:00.450Z,99740.84
2023-08-24T11:17:33.492Z,99745.66
2023-08-24T11:20:04.956Z,99739.94
2023-08-24T11:22:33.480Z,99734.97
2023-08-24T11:25:01.612Z,99731.97
2023-08-24T11:27:29.809Z,99726.63
2023-08-24T11:30:02.526Z,99728.22
2023-08-24T11:32:30.264Z,99729.28
2023-08-24T11:34:58.901Z,99718.84
2023-08-24T11:37:27.205Z,99714.66
2023-08-24T11:39:54.917Z,99713.75
2023-08-24T11:42:25.303Z,99703.81
2023-08-24T11:44:53.537Z,99705.53
2023-08-24T11:47:25.084Z,99709.13
2023-08-24T11:49:54.177Z,99708.06
2023-08-24T11:52:22.091Z,99710.03
2023-08-24T11:54:52.990Z,99708.13
2023-08-24T11:57:20.614Z,99694.59
2023-08-24T11:59:49.351Z,99696.94
2023-08-24T12:02:19.178Z,99692.03
2023-08-24T12:04:52.462Z,99689.19
2023-08-24T12:07:21.965Z,99694.88
2023-08-24T12:09:53.814Z,99685.56
2023-08-24T12:12:24.853Z,99688.53
2023-08-24T12:14:52.340Z,99678.16
2023-08-24T12:17:20.015Z,99668.44
2023-08-24T12:19:57.776Z,99673.28
2023-08-24T12:22:25.711Z,99669.84
2023-08-24T12:24:53.533Z,99665.84
2023-08-24T12:27:21.422Z,99665.59
2023-08-24T12:29:50.018Z,99661.03
2023-08-24T12:32:21.058Z,99656.41
2023-08-24T12:34:48.491Z,99652.16
2023-08-24T12:37:15.634Z,99655.31
2023-08-24T12:39:43.045Z,99651.69
2023-08-24T12:42:10.662Z,99645.13
2023-08-24T12:44:38.171Z,99643.59
2023-08-24T12:47:05.317Z,99637.00
2023-08-24T12:49:32.760Z,99634.25
2023-08-24T12:51:59.810Z,99629.38
2023-08-24T12:54:29.576Z,99623.53
2023-08-24T12:56:59.344Z,99620.16
2023-08-24T12:59:26.697Z,99615.44
2023-08-24T13:01:56.137Z,99607.16
2023-08-24T13:04:26.257Z,99607.84
2023-08-24T13:06:53.478Z,99607.28
2023-08-24T13:09:20.805Z,99597.66
2023-08-24T13:11:49.890Z,99598.59
2023-08-24T13:14:17.317Z,99591.06
2023-08-24T13:16:44.562Z,99592.16
2023-08-24T13:19:12.008Z,99587.84
2023-08-24T13:21:43.487Z,99594.66
2023-08-24T13:24:10.804Z,99590.03
2023-08-24T13:26:39.068Z,99590.09
2023-08-24T13:29:09.928Z,99583.66
2023-08-24T13:31:37.458Z,99585.16
2023-08-24T13:34:08.642Z,99585.88
2023-08-24T13:36:38.247Z,99586.94
2023-08-24T13:39:08.140Z,99581.41
2023-08-24T13:41:35.167Z,99571.28
2023-08-24T13:44:02.691Z,99568.47
2023-08-24T13:46:29.781Z,99566.16
2023-08-24T13:48:57.165Z,99564.50
2023-08-24T13:51:24.197Z,99562.03
2023-08-24T13:53:51.888Z,99562.03
2023-08-24T13:56:19.347Z,99554.06
2023-08-24T13:58:47.785Z,99551.13
2023-08-24T14:01:14.716Z,99548.44
2023-08-24T14:03:45.111Z,99543.47
2023-08-24T14:06:12.374Z,99542.84
2023-08-24T14:08:44.547Z,99553.78
2023-08-24T14:11:15.157Z,99543.81
2023-08-24T14:13:42.670Z,99535.25
2023-08-24T14:16:09.749Z,99540.28
2023-08-24T14:18:37.681Z,99533.22
2023-08-24T14:21:05.097Z,99529.56
2023-08-24T14:23:32.576Z,99526.75
2023-08-24T14:25:59.583Z,99518.03
2023-08-24T14:28:49.480Z,99515.09
2023-08-24T14:31:19.702Z,99518.34
2023-08-24T14:33:47.070Z,99514.59
2023-08-24T14:36:16.140Z,99510.91
2023-08-24T14:38:43.530Z,99504.59
2023-08-24T14:41:11.485Z,99500.41
2023-08-24T14:43:39.445Z,99503.41
2023-08-24T14:46:07.274Z,99504.28
2023-08-24T14:48:35.145Z,99493.50
2023-08-24T14:51:02.906Z,99487.16
2023-08-24T14:53:33.273Z,99482.22
2023-08-24T14:56:00.444Z,99485.13
2023-08-24T14:58:28.306Z,99493.59
2023-08-24T15:00:59.153Z,99490.56
2023-08-24T15:03:26.712Z,99485.34
2023-08-24T15:05:58.407Z,99487.41
2023-08-24T15:08:29.369Z,99485.06
2023-08-24T15:10:57.695Z,99484.28
2023-08-24T15:13:26.002Z,99478.22
2023-08-24T15:15:58.496Z,99473.75
2023-08-24T15:18:27.070Z,99480.94
2023-08-24T15:20:56.284Z,99472.41
2023-08-24T15:23:31.084Z,99478.91
2023-08-24T15:25:59.926Z,99467.09
2023-08-24T15:28:28.480Z,99461.25
2023-08-24T15:30:55.870Z,99456.06
2023-08-24T15:33:23.560Z,99472.47
2023-08-24T15:35:50.712Z,99468.66
2023-08-24T15:38:18.206Z,99464.50
2023-08-24T15:40:52.195Z,99457.94
2023-08-24T15:43:19.811Z,99461.50
2023-08-24T15:45:47.501Z,99455.50
2023-08-24T15:48:15.169Z,99464.50
2023-08-24T15:50:47.369Z,99464.47
2023-08-24T15:53:16.256Z,99456.59
2023-08-24T15:55:43.535Z,99439.25
2023-08-24T15:58:11.222Z,99444.88
2023-08-24T16:00:41.927Z,99450.69
2023-08-24T16:03:10.036Z,99443.41
2023-08-24T16:05:37.926Z,99436.00
2023-08-24T16:08:05.261Z,99433.69
2023-08-24T16:10:33.292Z,99434.16
2023-08-24T16:13:01.586Z,99432.88
2023-08-24T16:15:29.069Z,99429.81
2023-08-24T16:17:56.721Z,99426.19
2023-08-24T16:20:24.179Z,99428.75
2023-08-24T16:22:51.891Z,99436.41
2023-08-24T16:25:21.531Z,99423.41
2023-08-24T16:27:48.913Z,99423.41
2023-08-24T16:30:16.672Z,99417.59
2023-08-24T16:32:44.698Z,99415.22
2023-08-24T16:35:12.827Z,99412.22
2023-08-24T16:37:40.304Z,99408.34
2023-08-24T16:40:09.840Z,99410.50
2023-08-24T16:42:37.139Z,99403.84
2023-08-24T16:45:04.673Z,99395.84
2023-08-24T16:47:34.303Z,99392.22
2023-08-24T16:50:01.180Z,99401.28
2023-08-24T16:52:28.756Z,99398.84
2023-08-24T16:54:56.048Z,99397.16
2023-08-24T16:57:23.672Z,99393.97
2023-08-24T16:59:50.840Z,99395.19
2023-08-24T17:02:18.202Z,99410.78
2023-08-24T17:04:45.287Z,99406.91
2023-08-24T17:07:15.379Z,99405.19
2023-08-24T17:09:42.347Z,99399.81
2023-08-24T17:12:09.665Z,99396.16
2023-08-24T17:14:36.909Z,99401.00
2023-08-24T17:17:04.753Z,99400.22
2023-08-24T17:19:32.378Z,99404.88
2023-08-24T17:22:03.012Z,99405.91
2023-08-24T17:24:30.575Z,99402.69
2023-08-24T17:26:58.044Z,99400.50
2023-08-24T17:29:25.445Z,99404.47
2023-08-24T17:31:56.421Z,99404.31
2023-08-24T17:34:24.172Z,99404.63
2023-08-24T17:36:52.092Z,99419.97
2023-08-24T17:39:20.281Z,99416.91
2023-08-24T17:41:48.996Z,99417.28
2023-08-24T17:44:16.566Z,99409.13
2023-08-24T17:46:46.804Z,99409.50
2023-08-24T17:49:14.269Z,99407.59
2023-08-24T17:51:42.136Z,99398.50
2023-08-24T17:54:09.868Z,99406.03
2023-08-24T17:56:37.302Z,99403.28
2023-08-24T17:59:04.733Z,99406.28
2023-08-24T18:01:32.359Z,99406.53
2023-08-24T18:03:59.983Z,99409.78
2023-08-24T18:06:27.929Z,99408.16
2023-08-24T18:08:55.450Z,99409.88
2023-08-24T18:11:23.407Z,99415.25
2023-08-24T18:13:51.604Z,99405.16
2023-08-24T18:16:20.931Z,99405.31
2023-08-24T18:18:48.526Z,99411.00
2023-08-24T18:21:16.390Z,99414.28
2023-08-24T18:23:44.366Z,99414.75
2023-08-24T18:26:12.725Z,99408.09
2023-08-24T18:28:41.845Z,99404.19
2023-08-24T18:31:10.883Z,99405.97
2023-08-24T18:33:38.720Z,99403.22
2023-08-24T18:36:06.752Z,99402.38
2023-08-24T18:38:34.934Z,99399.31
2023-08-24T18:41:03.348Z,99401.28
2023-08-24T18:43:31.462Z,99394.91
2023-08-24T18:46:00.187Z,99394.09
2023-08-24T18:48:28.376Z,99395.56
2023-08-24T18:50:56.559Z,99397.19
2023-08-24T18:53:24.759Z,99396.78
2023-08-24T18:55:56.420Z,99391.25
2023-08-24T18:58:23.830Z,99385.31
2023-08-24T19:00:58.120Z,99389.53
2023-08-24T19:03:25.861Z,99394.34
2023-08-24T19:05:53.870Z,99395.31
2023-08-24T19:08:21.656Z,99397.19
2023-08-24T19:10:51.138Z,99393.44
2023-08-24T19:13:21.623Z,99396.28
2023-08-24T19:15:49.778Z,99392.66
2023-08-24T19:18:17.858Z,99392.88
2023-08-24T19:20:47.002Z,99393.00
2023-08-24T19:23:17.162Z,99389.81
2023-08-24T19:25:49.401Z,99387.63
2023-08-24T19:28:17.184Z,99385.59
2023-08-24T19:30:45.584Z,99390.78
2023-08-24T19:33:13.402Z,99387.84
2023-08-24T19:35:41.193Z,99379.63
2023-08-24T19:38:12.028Z,99385.38
2023-08-24T19:40:40.596Z,99382.63
2023-08-24T19:43:10.927Z,99384.56
2023-08-24T19:45:39.412Z,99386.75
2023-08-24T19:48:07.886Z,99391.09
2023-08-24T19:50:36.365Z,99384.34
2023-08-24T19:53:08.821Z,99374.03
2023-08-24T19:55:41.288Z,99369.31
2023-08-24T19:58:09.077Z,99364.84
2023-08-24T20:00:36.803Z,99360.81
2023-08-24T20:03:06.046Z,99363.66
2023-08-24T20:05:36.150Z,99360.72
2023-08-24T20:08:04.775Z,99351.09
2023-08-24T20:10:32.785Z,99353.38
2023-08-24T20:13:02.620Z,99343.09
2023-08-24T20:15:30.482Z,99338.97
2023-08-24T20:17:58.256Z,99329.69
2023-08-24T20:20:26.378Z,99338.66
2023-08-24T20:22:54.249Z,99332.44
2023-08-24T20:25:22.606Z,99335.09
2023-08-24T20:27:51.051Z,99333.09
2023-08-24T20:30:18.974Z,99327.69
2023-08-24T20:32:46.508Z,99311.09
2023-08-24T20:35:16.632Z,99307.22
2023-08-24T20:37:44.210Z,99315.38
2023-08-24T20:40:12.265Z,99305.19
2023-08-24T20:42:41.974Z,99304.47
2023-08-24T20:45:10.510Z,99307.72
2023-08-24T20:47:38.206Z,99314.25
2023-08-24T20:50:06.417Z,99313.41
2023-08-24T20:52:34.038Z,99315.94
2023-08-24T20:55:02.050Z,99305.13
2023-08-24T20:57:29.415Z,99288.94
2023-08-24T20:59:57.384Z,99288.31
2023-08-24T21:02:24.615Z,99273.00
2023-08-24T21:04:52.051Z,99272.28
2023-08-24T21:07:19.149Z,99281.59
2023-08-24T21:09:46.529Z,99280.69
2023-08-24T21:12:13.584Z,99293.59
2023-08-24T21:14:40.982Z,99298.88
2023-08-24T21:17:08.096Z,99299.59
2023-08-24T21:19:35.356Z,99294.28
2023-08-24T21:22:02.819Z,99285.72
2023-08-24T21:24:30.306Z,99279.44
2023-08-24T21:26:57.669Z,99286.28
2023-08-24T21:29:25.831Z,99289.94
2023-08-24T21:31:57.000Z,99284.81
2023-08-24T21:34:24.478Z,99280.41
2023-08-24T21:36:51.500Z,99273.25
2023-08-24T21:39:19.865Z,99266.00
2023-08-24T21:41:46.947Z,99270.31
2023-08-24T21:44:14.407Z,99274.75
2023-08-24T21:46:41.814Z,99271.91
2023-08-24T21:49:09.950Z,99272.44
2023-08-24T21:51:39.869Z,99278.84
2023-08-24T21:54:07.236Z,99269.63
2023-08-24T21:56:34.297Z,99274.78
2023-08-24T21:59:01.758Z,99271.41
2023-08-24T22:01:28.734Z,99287.34
2023-08-24T22:03:58.707Z,99299.78
2023-08-24T22:06:25.784Z,99310.56
2023-08-24T22:08:53.061Z,99326.28
2023-08-24T22:11:22.729Z,99317.47
2023-08-24T22:13:53.493Z,99312.72
2023-08-24T22:16:27.169Z,99298.47
2023-08-24T22:18:56.808Z,99304.28
2023-08-24T22:21:23.726Z,99290.75
2023-08-24T22:23:51.698Z,99284.16
2023-08-24T22:26:18.989Z,99277.09
2023-08-24T22:28:46.507Z,99266.53
2023-08-24T22:31:13.609Z,99272.63
2023-08-24T22:33:42.819Z,99259.19
2023-08-24T22:36:10.593Z,99254.78
2023-08-24T22:38:40.362Z,99258.00
2023-08-24T22:41:10.077Z,99276.59
2023-08-24T22:43:37.462Z,99285.47
2023-08-24T22:46:06.981Z,99297.16
2023-08-24T22:48:34.406Z,99293.50
2023-08-24T22:51:03.134Z,99296.81
2023-08-24T22:53:30.501Z,99294.00
2023-08-24T22:55:57.429Z,99294.13
2023-08-24T22:58:24.617Z,99285.41
2023-08-24T23:00:51.468Z,99281.34
2023-08-24T23:03:21.112Z,99299.41
2023-08-24T23:05:48.171Z,99295.84
2023-08-24T23:08:15.676Z,99291.81
2023-08-24T23:10:43.709Z,99285.69
2023-08-24T23:13:11.031Z,99272.56
2023-08-24T23:15:38.057Z,99276.50
2023-08-24T23:18:08.232Z,99273.53
2023-08-24T23:20:35.947Z,99258.47
2023-08-24T23:23:03.318Z,99260.19
2023-08-24T23:25:30.259Z,99255.03
2023-08-24T23:27:57.589Z,99249.25
2023-08-24T23:30:26.793Z,99253.81
2023-08-24T23:32:54.492Z,99252.59
2023-08-24T23:35:25.047Z,99253.69
2023-08-24T23:37:52.688Z,99254.94
2023-08-24T23:40:23.008Z,99240.69
2023-08-24T23:42:56.372Z,99230.50
2023-08-24T23:45:23.389Z,99235.41
2023-08-24T23:47:50.755Z,99235.94
2023-08-24T23:50:17.688Z,99239.97
2023-08-24T23:52:50.120Z,99254.81
2023-08-24T23:55:18.297Z,99255.78
2023-08-24T23:57:45.655Z,99241.59
